createdAt,value
2022-10-28T00:02:04.487Z,101711.78
2022-10-28T00:07:02.063Z,101725.03
2022-10-28T00:09:28.466Z,101725.78
2022-10-28T00:11:54.827Z,101732.81
2022-10-28T00:14:21.210Z,101714.16
2022-10-28T00:16:47.530Z,101723.66
2022-10-28T00:19:13.866Z,101720.03
2022-10-28T00:21:40.675Z,101722.06
2022-10-28T00:24:07.329Z,101720.53
2022-10-28T00:26:33.979Z,101718.28
2022-10-28T00:29:06.947Z,101722.78
2022-10-28T00:31:33.383Z,101722.06
2022-10-28T00:34:00.042Z,101717.66
2022-10-28T00:36:27.131Z,101724.81
2022-10-28T00:38:53.944Z,101723.31
2022-10-28T00:41:21.125Z,101716.16
2022-10-28T00:43:48.298Z,101710.41
2022-10-28T00:46:17.314Z,101706.75
2022-10-28T00:48:43.923Z,101709.56
2022-10-28T00:51:10.323Z,101700.91
2022-10-28T00:53:36.634Z,101697.13
2022-10-28T00:56:03.045Z,101699.94
2022-10-28T00:58:29.382Z,101714.44
2022-10-28T01:00:55.697Z,101720.31
2022-10-28T01:03:22.005Z,101714.66
2022-10-28T01:05:48.518Z,101723.97
2022-10-28T01:08:14.838Z,101709.63
2022-10-28T01:10:47.594Z,101711.78
2022-10-28T01:13:35.300Z,101711.03
2022-10-28T01:16:07.162Z,101701.75
2022-10-28T01:18:46.559Z,101701.75
2022-10-28T01:21:26.306Z,101699.50
2022-10-28T01:24:11.505Z,101703.13
2022-10-28T01:26:37.748Z,101697.38
2022-10-28T01:29:18.098Z,101694.47
2022-10-28T01:31:53.857Z,101687.97
2022-10-28T01:34:24.125Z,101690.84
2022-10-28T01:36:54.751Z,101684.34
2022-10-28T01:39:24.407Z,101687.25
2022-10-28T01:41:52.217Z,101682.97
2022-10-28T01:44:21.434Z,101680.06
2022-10-28T01:46:48.132Z,101669.94
2022-10-28T01:49:16.927Z,101677.19
2022-10-28T01:51:45.179Z,101672.84
2022-10-28T01:54:11.501Z,101664.06
2022-10-28T01:56:39.101Z,101668.44
2022-10-28T01:59:05.535Z,101664.19
2022-10-28T02:01:32.032Z,101654.69
2022-10-28T02:03:58.574Z,101658.41
2022-10-28T02:06:26.050Z,101659.78
2022-10-28T02:08:53.625Z,101668.44
2022-10-28T02:11:25.079Z,101663.31
2022-10-28T02:13:51.360Z,101675.47
2022-10-28T02:16:26.430Z,101666.94
2022-10-28T02:18:55.750Z,101679.97
2022-10-28T02:21:28.062Z,101676.97
2022-10-28T02:23:59.486Z,101679.22
2022-10-28T02:26:34.477Z,101682.00
2022-10-28T02:29:05.518Z,101671.97
2022-10-28T02:31:32.268Z,101675.59
2022-10-28T02:33:59.524Z,101676.97
2022-10-28T02:36:25.910Z,101669.72
2022-10-28T02:38:53.578Z,101659.69
2022-10-28T02:41:24.417Z,101671.19
2022-10-28T02:43:51.924Z,101665.34
2022-10-28T02:46:18.264Z,101669.72
2022-10-28T02:48:45.217Z,101662.47
2022-10-28T02:51:12.257Z,101668.22
2022-10-28T02:53:57.295Z,101662.47
2022-10-28T02:56:23.698Z,101661.06
2022-10-28T02:58:50.017Z,101663.97
2022-10-28T03:01:16.506Z,101665.22
2022-10-28T03:03:42.965Z,101668.22
2022-10-28T03:06:09.271Z,101662.56
2022-10-28T03:08:35.587Z,101665.44
2022-10-28T03:11:01.905Z,101658.94
2022-10-28T03:13:28.217Z,101659.69
2022-10-28T03:15:54.521Z,101650.28
2022-10-28T03:18:20.858Z,101645.19
2022-10-28T03:20:47.180Z,101643.78
2022-10-28T03:23:13.499Z,101649.56
2022-10-28T03:25:39.802Z,101656.72
2022-10-28T03:28:06.117Z,101666.09
2022-10-28T03:30:32.428Z,101668.22
2022-10-28T03:32:58.747Z,101669.72
2022-10-28T03:35:25.057Z,101685.63
2022-10-28T03:37:57.029Z,101668.22
2022-10-28T03:40:23.447Z,101676.09
2022-10-28T03:42:49.765Z,101672.72
2022-10-28T03:45:16.155Z,101669.72
2022-10-28T03:47:42.532Z,101666.94
2022-10-28T03:50:09.050Z,101648.25
2022-10-28T03:52:35.369Z,101645.38
2022-10-28T03:55:01.694Z,101654.81
2022-10-28T03:57:31.528Z,101658.41
2022-10-28T03:59:57.843Z,101652.66
2022-10-28T04:02:24.271Z,101658.41
2022-10-28T04:04:50.626Z,101662.66
2022-10-28T04:07:16.951Z,101667.06
2022-10-28T04:09:43.262Z,101669.22
2022-10-28T04:12:09.754Z,101664.19
2022-10-28T04:14:36.060Z,101661.31
2022-10-28T04:17:02.381Z,101663.44
2022-10-28T04:19:28.698Z,101657.69
2022-10-28T04:21:55.022Z,101652.66
2022-10-28T04:24:21.342Z,101645.38
2022-10-28T04:26:47.686Z,101633.13
2022-10-28T04:29:14.008Z,101638.13
2022-10-28T04:31:40.327Z,101645.28
2022-10-28T04:34:06.645Z,101634.50
2022-10-28T04:36:32.962Z,101642.38
2022-10-28T04:38:59.266Z,101645.19
2022-10-28T04:41:25.586Z,101636.63
2022-10-28T04:43:51.892Z,101628.75
2022-10-28T04:46:18.237Z,101633.41
2022-10-28T04:48:46.271Z,101642.31
2022-10-28T04:51:12.675Z,101639.41
2022-10-28T04:53:39.007Z,101628.94
2022-10-28T04:56:05.449Z,101631.78
2022-10-28T04:58:31.758Z,101632.19
2022-10-28T05:00:58.141Z,101633.69
2022-10-28T05:03:24.480Z,101641.16
2022-10-28T05:05:50.795Z,101639.97
2022-10-28T05:08:17.150Z,101637.72
2022-10-28T05:10:43.504Z,101629.50
2022-10-28T05:13:09.818Z,101622.97
2022-10-28T05:15:36.153Z,101622.78
2022-10-28T05:18:02.488Z,101622.78
2022-10-28T05:20:28.833Z,101619.47
2022-10-28T05:22:56.928Z,101620.00
2022-10-28T05:25:23.502Z,101623.50
2022-10-28T05:27:49.848Z,101623.09
2022-10-28T05:30:16.149Z,101632.81
2022-10-28T05:32:42.466Z,101617.97
2022-10-28T05:35:08.929Z,101621.47
2022-10-28T05:37:35.286Z,101614.66
2022-10-28T05:40:01.654Z,101617.84
2022-10-28T05:42:28.013Z,101617.63
2022-10-28T05:44:54.347Z,101619.25
2022-10-28T05:47:20.665Z,101620.75
2022-10-28T05:49:46.993Z,101621.25
2022-10-28T05:52:13.312Z,101620.63
2022-10-28T05:54:39.627Z,101615.00
2022-10-28T05:57:05.990Z,101617.03
2022-10-28T05:59:32.322Z,101611.25
2022-10-28T06:01:58.718Z,101612.56
2022-10-28T06:04:25.187Z,101609.09
2022-10-28T06:06:53.931Z,101604.09
2022-10-28T06:09:20.261Z,101603.25
2022-10-28T06:11:45.062Z,101590.53
2022-10-28T06:14:11.369Z,101593.53
2022-10-28T06:16:37.695Z,101593.53
2022-10-28T06:19:04.073Z,101586.28
2022-10-28T06:21:30.407Z,101590.53
2022-10-28T06:23:56.740Z,101589.38
2022-10-28T06:26:23.076Z,101586.38
2022-10-28T06:28:49.414Z,101589.25
2022-10-28T06:31:15.726Z,101583.69
2022-10-28T06:33:42.041Z,101586.16
2022-10-28T06:36:08.356Z,101591.59
2022-10-28T06:38:34.690Z,101600.97
2022-10-28T06:41:01.012Z,101593.19
2022-10-28T06:43:27.338Z,101591.91
2022-10-28T06:45:55.577Z,101589.91
2022-10-28T06:48:23.536Z,101597.28
2022-10-28T06:50:49.857Z,101603.13
2022-10-28T06:53:16.185Z,101616.56
2022-10-28T06:55:42.529Z,101602.97
2022-10-28T06:58:09.469Z,101613.09
2022-10-28T07:00:35.798Z,101601.44
2022-10-28T07:03:02.261Z,101595.63
2022-10-28T07:05:28.677Z,101604.84
2022-10-28T07:07:55.654Z,101597.25
2022-10-28T07:10:22.317Z,101598.81
2022-10-28T07:12:48.665Z,101605.84
2022-10-28T07:15:15.004Z,101612.00
2022-10-28T07:17:41.328Z,101618.91
2022-10-28T07:20:08.319Z,101623.34
2022-10-28T07:22:34.698Z,101616.00
2022-10-28T07:25:01.021Z,101598.88
2022-10-28T07:27:27.347Z,101605.69
2022-10-28T07:29:53.675Z,101588.44
2022-10-28T07:32:19.990Z,101593.81
2022-10-28T07:34:46.321Z,101606.09
2022-10-28T07:37:12.885Z,101600.56
2022-10-28T07:39:39.208Z,101595.28
2022-10-28T07:42:05.570Z,101591.09
2022-10-28T07:44:31.913Z,101589.81
2022-10-28T07:46:58.533Z,101592.69
2022-10-28T07:49:24.897Z,101613.97
2022-10-28T07:51:51.541Z,101611.72
2022-10-28T07:54:17.868Z,101609.13
2022-10-28T07:56:44.194Z,101617.69
2022-10-28T07:59:10.521Z,101610.31
2022-10-28T08:01:36.981Z,101615.56
2022-10-28T08:04:03.422Z,101610.72
2022-10-28T08:06:29.750Z,101619.81
2022-10-28T08:08:56.276Z,101600.47
2022-10-28T08:11:23.683Z,101602.72
2022-10-28T08:13:50.293Z,101609.97
2022-10-28T08:16:16.608Z,101610.72
2022-10-28T08:18:42.931Z,101619.38
2022-10-28T08:21:09.704Z,101625.84
2022-10-28T08:23:36.056Z,101625.72
2022-10-28T08:26:02.359Z,101624.84
2022-10-28T08:28:28.705Z,101626.75
2022-10-28T08:31:08.363Z,101614.25
2022-10-28T08:33:38.659Z,101616.94
2022-10-28T08:36:05.355Z,101617.50
2022-10-28T08:38:31.678Z,101613.94
2022-10-28T08:40:57.931Z,101608.47
2022-10-28T08:43:57.111Z,101610.16
2022-10-28T08:46:24.089Z,101606.03
2022-10-28T08:48:50.415Z,101617.78
2022-10-28T08:51:17.821Z,101622.22
2022-10-28T08:53:54.207Z,101617.34
2022-10-28T08:56:29.977Z,101623.84
2022-10-28T08:59:00.162Z,101606.97
2022-10-28T09:01:37.256Z,101604.88
2022-10-28T09:04:05.256Z,101590.75
2022-10-28T09:06:31.567Z,101597.28
2022-10-28T09:08:58.983Z,101590.84
2022-10-28T09:11:33.148Z,101590.09
2022-10-28T09:14:11.877Z,101592.34
2022-10-28T09:16:47.948Z,101582.66
2022-10-28T09:19:32.948Z,101596.50
2022-10-28T09:22:18.436Z,101592.16
2022-10-28T09:24:54.442Z,101587.13
2022-10-28T09:27:33.204Z,101584.00
2022-10-28T09:30:02.468Z,101587.75
2022-10-28T09:32:33.647Z,101583.50
2022-10-28T09:35:01.674Z,101581.47
2022-10-28T09:37:29.000Z,101582.09
2022-10-28T09:39:55.766Z,101582.66
2022-10-28T09:42:32.781Z,101579.22
2022-10-28T09:45:00.794Z,101576.31
2022-10-28T09:47:28.084Z,101577.16
2022-10-28T09:49:55.610Z,101577.09
2022-10-28T09:52:25.348Z,101568.53
2022-10-28T09:54:52.341Z,101571.41
2022-10-28T09:57:18.843Z,101569.81
2022-10-28T09:59:45.153Z,101572.81
2022-10-28T10:02:20.090Z,101574.22
2022-10-28T10:04:46.409Z,101580.06
2022-10-28T10:07:12.833Z,101580.81
2022-10-28T10:09:39.140Z,101569.91
2022-10-28T10:12:06.387Z,101562.69
2022-10-28T10:14:49.061Z,101567.03
2022-10-28T10:17:16.849Z,101554.75
2022-10-28T10:20:01.519Z,101559.03
2022-10-28T10:22:31.743Z,101555.28
2022-10-28T10:24:58.124Z,101548.25
2022-10-28T10:27:24.631Z,101551.97
2022-10-28T10:29:51.560Z,101546.28
2022-10-28T10:32:18.412Z,101543.34
2022-10-28T10:34:45.881Z,101539.25
2022-10-28T10:37:21.803Z,101538.31
2022-10-28T10:40:26.895Z,101540.38
2022-10-28T10:43:10.019Z,101528.81
2022-10-28T10:45:39.543Z,101519.13
2022-10-28T10:48:06.544Z,101522.78
2022-10-28T10:50:32.991Z,101519.31
2022-10-28T10:52:59.759Z,101521.97
2022-10-28T10:55:29.497Z,101513.41
2022-10-28T10:57:56.129Z,101513.50
2022-10-28T11:00:23.323Z,101507.84
2022-10-28T11:02:52.248Z,101504.63
2022-10-28T11:05:25.733Z,101504.91
2022-10-28T11:07:55.766Z,101508.16
2022-10-28T11:10:23.288Z,101512.38
2022-10-28T11:12:53.945Z,101509.28
2022-10-28T11:15:28.169Z,101505.19
2022-10-28T11:18:01.804Z,101512.00
2022-10-28T11:20:31.186Z,101513.41
2022-10-28T11:23:13.579Z,101508.16
2022-10-28T11:25:46.984Z,101505.56
2022-10-28T11:28:18.826Z,101496.22
2022-10-28T11:30:48.392Z,101487.94
2022-10-28T11:33:34.154Z,101489.06
2022-10-28T11:36:03.790Z,101487.72
2022-10-28T11:38:56.467Z,101472.34
2022-10-28T11:41:28.462Z,101493.19
2022-10-28T11:43:57.571Z,101486.31
2022-10-28T11:46:30.821Z,101473.47
2022-10-28T11:49:00.071Z,101478.88
2022-10-28T11:51:36.133Z,101479.81
2022-10-28T11:54:14.976Z,101489.13
2022-10-28T11:56:47.350Z,101483.66
2022-10-28T11:59:24.747Z,101483.25
2022-10-28T12:02:06.066Z,101481.75
2022-10-28T12:04:44.375Z,101478.38
2022-10-28T12:07:14.792Z,101479.72
2022-10-28T12:09:59.853Z,101473.63
2022-10-28T12:12:41.393Z,101473.84
2022-10-28T12:15:11.076Z,101480.13
2022-10-28T12:17:40.594Z,101479.41
2022-10-28T12:20:10.289Z,101475.34
2022-10-28T12:22:40.165Z,101468.16
2022-10-28T12:25:08.030Z,101470.63
2022-10-28T12:27:36.275Z,101461.53
2022-10-28T12:30:03.851Z,101467.41
2022-10-28T12:32:31.300Z,101464.53
2022-10-28T12:35:05.537Z,101459.53
2022-10-28T12:37:41.085Z,101452.81
2022-10-28T12:40:14.299Z,101453.47
2022-10-28T12:42:57.552Z,101451.31
2022-10-28T12:45:24.523Z,101449.84
2022-10-28T12:47:53.025Z,101448.34
2022-10-28T12:50:25.532Z,101451.06
2022-10-28T12:52:58.057Z,101448.91
2022-10-28T12:55:44.163Z,101437.44
2022-10-28T12:58:15.617Z,101439.97
2022-10-28T13:00:43.081Z,101436.91
2022-10-28T13:03:13.202Z,101427.59
2022-10-28T13:05:47.240Z,101432.69
2022-10-28T13:08:17.733Z,101436.53
2022-10-28T13:11:02.735Z,101429.72
2022-10-28T13:13:46.891Z,101425.75
2022-10-28T13:16:31.801Z,101423.03
2022-10-28T13:19:27.593Z,101428.47
2022-10-28T13:22:16.240Z,101417.91
2022-10-28T13:25:01.503Z,101412.28
2022-10-28T13:27:27.863Z,101404.78
2022-10-28T13:29:55.084Z,101410.47
2022-10-28T13:32:24.349Z,101409.06
2022-10-28T13:34:50.693Z,101409.06
2022-10-28T13:37:18.510Z,101412.47
2022-10-28T13:39:45.519Z,101409.97
2022-10-28T13:42:19.543Z,101410.56
2022-10-28T13:44:46.911Z,101410.03
2022-10-28T13:47:13.161Z,101414.09
2022-10-28T13:49:41.362Z,101417.41
2022-10-28T13:52:07.680Z,101402.78
2022-10-28T13:54:43.054Z,101403.34
2022-10-28T13:57:23.135Z,101410.78
2022-10-28T13:59:51.201Z,101403.50
2022-10-28T14:02:34.310Z,101399.22
2022-10-28T14:05:01.737Z,101396.41
2022-10-28T14:07:31.535Z,101402.50
2022-10-28T14:09:59.151Z,101396.22
2022-10-28T14:12:26.455Z,101400.41
2022-10-28T14:15:03.401Z,101413.31
2022-10-28T14:17:34.321Z,101404.31
2022-10-28T14:20:00.644Z,101403.28
2022-10-28T14:22:31.651Z,101402.97
2022-10-28T14:24:58.109Z,101397.47
2022-10-28T14:27:28.712Z,101397.66
2022-10-28T14:29:54.950Z,101403.59
2022-10-28T14:32:30.545Z,101400.41
2022-10-28T14:34:57.277Z,101396.00
2022-10-28T14:37:31.540Z,101396.25
2022-10-28T14:40:02.236Z,101391.09
2022-10-28T14:42:34.657Z,101393.00
2022-10-28T14:45:00.890Z,101389.44
2022-10-28T14:47:45.721Z,101399.28
2022-10-28T14:50:21.659Z,101391.69
2022-10-28T14:52:48.150Z,101386.53
2022-10-28T14:55:30.255Z,101388.03
2022-10-28T14:58:32.521Z,101391.66
2022-10-28T15:01:05.626Z,101382.75
2022-10-28T15:03:32.028Z,101382.09
2022-10-28T15:06:01.716Z,101383.94
2022-10-28T15:08:28.073Z,101378.44
2022-10-28T15:10:54.405Z,101381.25
2022-10-28T15:13:22.162Z,101377.16
2022-10-28T15:15:56.494Z,101383.16
2022-10-28T15:18:26.441Z,101384.84
2022-10-28T15:21:09.150Z,101390.53
2022-10-28T15:23:35.611Z,101377.28
2022-10-28T15:26:05.768Z,101378.63
2022-10-28T15:28:32.077Z,101383.25
2022-10-28T15:30:58.391Z,101386.88
2022-10-28T15:33:40.564Z,101378.06
2022-10-28T15:36:17.739Z,101380.19
2022-10-28T15:38:45.227Z,101377.38
2022-10-28T15:41:26.768Z,101380.59
2022-10-28T15:44:02.390Z,101393.19
2022-10-28T15:46:28.729Z,101372.63
2022-10-28T15:48:55.451Z,101375.69
2022-10-28T15:51:21.795Z,101377.59
2022-10-28T15:53:48.460Z,101378.63
2022-10-28T15:56:17.215Z,101375.25
2022-10-28T15:58:43.974Z,101384.88
2022-10-28T16:01:26.582Z,101382.66
2022-10-28T16:03:53.027Z,101377.59
2022-10-28T16:06:23.808Z,101378.53
2022-10-28T16:08:59.081Z,101377.06
2022-10-28T16:11:25.402Z,101380.69
2022-10-28T16:13:51.749Z,101383.38
2022-10-28T16:16:24.771Z,101379.34
2022-10-28T16:19:12.917Z,101383.47
2022-10-28T16:21:39.232Z,101383.38
2022-10-28T16:24:05.604Z,101370.16
2022-10-28T16:26:32.930Z,101380.59
2022-10-28T16:28:59.303Z,101388.97
2022-10-28T16:31:27.241Z,101387.38
2022-10-28T16:33:53.584Z,101385.66
2022-10-28T16:36:19.909Z,101385.56
2022-10-28T16:38:46.252Z,101382.09
2022-10-28T16:41:14.340Z,101375.56
2022-10-28T16:43:40.652Z,101385.72
2022-10-28T16:46:06.979Z,101381.03
2022-10-28T16:48:33.296Z,101374.72
2022-10-28T16:51:03.450Z,101376.81
2022-10-28T16:53:29.796Z,101382.41
2022-10-28T16:55:59.123Z,101370.94
2022-10-28T16:58:26.976Z,101362.00
2022-10-28T17:00:53.529Z,101364.16
2022-10-28T17:03:19.874Z,101367.78
2022-10-28T17:05:46.247Z,101381.25
2022-10-28T17:08:12.582Z,101375.41
2022-10-28T17:10:42.192Z,101380.03
2022-10-28T17:13:11.993Z,101384.22
2022-10-28T17:15:58.275Z,101379.72
2022-10-28T17:18:25.008Z,101386.94
2022-10-28T17:21:01.260Z,101381.03
2022-10-28T17:23:27.759Z,101387.03
2022-10-28T17:26:00.450Z,101379.31
2022-10-28T17:28:26.769Z,101389.00
2022-10-28T17:30:53.085Z,101386.75
2022-10-28T17:33:19.396Z,101388.16
2022-10-28T17:35:45.725Z,101383.88
2022-10-28T17:38:12.037Z,101383.03
2022-10-28T17:40:38.372Z,101387.44
2022-10-28T17:43:04.705Z,101383.69
2022-10-28T17:45:31.053Z,101388.72
2022-10-28T17:47:58.864Z,101381.38
2022-10-28T17:50:25.198Z,101393.75
2022-10-28T17:52:52.792Z,101391.50
2022-10-28T17:55:19.381Z,101383.34
2022-10-28T17:57:45.721Z,101391.34
2022-10-28T18:00:12.252Z,101381.84
2022-10-28T18:02:40.276Z,101385.09
2022-10-28T18:05:06.950Z,101389.13
2022-10-28T18:07:33.265Z,101380.75
2022-10-28T18:09:59.602Z,101376.94
2022-10-28T18:12:25.927Z,101386.78
2022-10-28T18:14:52.303Z,101384.28
2022-10-28T18:17:18.630Z,101389.22
2022-10-28T18:19:44.977Z,101393.03
2022-10-28T18:22:11.337Z,101383.16
2022-10-28T18:24:38.695Z,101380.25
2022-10-28T18:27:05.012Z,101380.16
2022-10-28T18:29:31.327Z,101378.88
2022-10-28T18:31:57.667Z,101381.47
2022-10-28T18:34:24.071Z,101385.66
2022-10-28T18:36:50.499Z,101385.56
2022-10-28T18:39:16.837Z,101380.44
2022-10-28T18:41:43.750Z,101385.56
2022-10-28T18:44:10.747Z,101378.50
2022-10-28T18:46:37.665Z,101378.69
2022-10-28T18:49:05.238Z,101387.63
2022-10-28T18:51:32.111Z,101383.06
2022-10-28T18:53:58.483Z,101387.44
2022-10-28T18:56:25.495Z,101386.97
2022-10-28T18:58:52.318Z,101383.25
2022-10-28T19:01:20.138Z,101381.56
2022-10-28T19:03:48.144Z,101379.44
2022-10-28T19:06:15.204Z,101378.13
2022-10-28T19:08:41.521Z,101375.91
2022-10-28T19:11:07.868Z,101377.19
2022-10-28T19:13:34.647Z,101378.50
2022-10-28T19:16:01.101Z,101376.34
2022-10-28T19:18:27.471Z,101384.38
2022-10-28T19:20:56.758Z,101372.09
2022-10-28T19:23:23.114Z,101383.97
2022-10-28T19:25:55.918Z,101376.91
2022-10-28T19:28:22.230Z,101382.47
2022-10-28T19:30:48.557Z,101385.66
2022-10-28T19:33:14.971Z,101388.47
2022-10-28T19:35:41.313Z,101382.69
2022-10-28T19:38:07.641Z,101389.84
2022-10-28T19:40:33.989Z,101397.00
2022-10-28T19:43:00.354Z,101389.09
2022-10-28T19:45:26.719Z,101404.25
2022-10-28T19:47:53.383Z,101398.38
2022-10-28T19:50:20.019Z,101402.66
2022-10-28T19:52:46.410Z,101404.16
2022-10-28T19:55:14.999Z,101395.50
2022-10-28T19:57:41.521Z,101399.03
2022-10-28T20:00:08.039Z,101414.19
2022-10-28T20:02:37.933Z,101409.19
2022-10-28T20:05:04.487Z,101408.44
2022-10-28T20:07:30.805Z,101414.09
2022-10-28T20:12:28.974Z,101415.50
2022-10-28T20:14:55.298Z,101423.38
2022-10-28T20:17:21.616Z,101427.03
2022-10-28T20:19:47.956Z,101437.06
2022-10-28T20:22:14.274Z,101429.06
2022-10-28T20:24:40.632Z,101431.31
2022-10-28T20:27:07.215Z,101429.81
2022-10-28T20:29:33.542Z,101433.34
2022-10-28T20:31:59.867Z,101426.84
2022-10-28T20:34:26.205Z,101436.97
2022-10-28T20:36:52.536Z,101428.31
2022-10-28T20:39:20.665Z,101436.97
2022-10-28T20:41:47.227Z,101428.31
2022-10-28T20:44:13.828Z,101436.78
2022-10-28T20:46:40.184Z,101435.38
2022-10-28T20:49:07.766Z,101431.09
2022-10-28T20:51:34.171Z,101435.38
2022-10-28T20:54:00.744Z,101438.28
2022-10-28T20:56:27.627Z,101428.88
2022-10-28T20:58:54.206Z,101435.38
2022-10-28T21:01:21.425Z,101434.56
2022-10-28T21:03:47.907Z,101432.41
2022-10-28T21:06:15.444Z,101436.69
2022-10-28T21:08:42.277Z,101438.16
2022-10-28T21:11:08.980Z,101441.16
2022-10-28T21:13:35.301Z,101434.56
2022-10-28T21:16:05.383Z,101441.78
2022-10-28T21:18:31.783Z,101445.41
2022-10-28T21:20:58.246Z,101446.72
2022-10-28T21:23:24.759Z,101445.97
2022-10-28T21:25:54.198Z,101443.75
2022-10-28T21:28:20.633Z,101439.28
2022-10-28T21:30:46.959Z,101442.34
2022-10-28T21:33:14.019Z,101443.63
2022-10-28T21:35:40.386Z,101446.53
2022-10-28T21:38:06.708Z,101445.78
2022-10-28T21:40:33.034Z,101441.59
2022-10-28T21:42:59.365Z,101453.59
2022-10-28T21:45:25.689Z,101449.41
2022-10-28T21:47:55.813Z,101436.38
2022-10-28T21:50:22.521Z,101439.38
2022-10-28T21:52:48.875Z,101442.06
2022-10-28T21:55:20.478Z,101439.28
2022-10-28T21:57:53.361Z,101441.41
2022-10-28T22:00:20.227Z,101449.88
2022-10-28T22:02:46.787Z,101458.06
2022-10-28T22:05:13.254Z,101451.53
2022-10-28T22:07:39.576Z,101459.38
2022-10-28T22:10:06.072Z,101454.91
2022-10-28T22:12:32.403Z,101450.59
2022-10-28T22:14:58.749Z,101451.34
2022-10-28T22:17:25.130Z,101456.38
2022-10-28T22:19:52.320Z,101456.47
2022-10-28T22:22:18.657Z,101460.75
2022-10-28T22:24:45.005Z,101464.91
2022-10-28T22:27:11.336Z,101469.94
2022-10-28T22:29:37.648Z,101473.78
2022-10-28T22:32:03.982Z,101478.81
2022-10-28T22:34:30.309Z,101478.06
2022-10-28T22:36:56.630Z,101477.97
2022-10-28T22:39:22.953Z,101475.72
2022-10-28T22:41:49.277Z,101474.97
2022-10-28T22:44:15.625Z,101481.69
2022-10-28T22:46:43.057Z,101478.69
2022-10-28T22:49:09.375Z,101496.75
2022-10-28T22:51:35.701Z,101493.75
2022-10-28T22:54:02.032Z,101492.38
2022-10-28T22:56:28.381Z,101501.78
2022-10-28T22:58:55.677Z,101507.53
2022-10-28T23:01:22.049Z,101501.03
2022-10-28T23:03:48.739Z,101512.56
2022-10-28T23:06:15.775Z,101511.06
2022-10-28T23:08:42.261Z,101511.81
2022-10-28T23:11:08.910Z,101512.56
2022-10-28T23:13:35.249Z,101519.06
2022-10-28T23:16:05.265Z,101511.06
2022-10-28T23:18:31.581Z,101508.06
2022-10-28T23:21:02.716Z,101499.53
2022-10-28T23:23:29.037Z,101504.56
2022-10-28T23:25:55.381Z,101516.81
2022-10-28T23:28:21.692Z,101518.97
2022-10-28T23:30:48.024Z,101512.34
2022-10-28T23:33:14.480Z,101513.19
2022-10-28T23:35:42.706Z,101509.59
2022-10-28T23:38:11.010Z,101503.72
2022-10-28T23:40:38.054Z,101508.06
2022-10-28T23:43:04.400Z,101512.34
2022-10-28T23:45:30.741Z,101508.06
2022-10-28T23:47:57.047Z,101515.97
2022-10-28T23:50:23.368Z,101524.63
2022-10-28T23:52:52.856Z,101515.88
2022-10-28T23:55:19.583Z,101519.50
2022-10-28T23:57:45.920Z,101533.28
